Saturday, May 26, 2018, 5:14 AM CDT
Back to Local

KPWK, Chicago Executive Airport

Location: Wheeling, IL, United States Lat: 42.117
Local Time: 5:14 AM CDT (10:14 GMT) Lon: -87.9
Time Zone: US/Central Elev: 646 ft

Show me the last for .
Show Decoded

2018-05-26 04:52 METAR KPWK 260952Z AUTO 00000KT 10SM CLR 21/18 A2976 RMK AO2 SLP072 T02110178 =
2018-05-26 03:52 METAR KPWK 260852Z AUTO 24004KT 10SM CLR 22/18 A2977 RMK AO2 SLP075 T02170183
                 55003 =
2018-05-26 02:52 METAR KPWK 260752Z AUTO 26005KT 10SM CLR 22/19 A2976 RMK AO2 SLP071 T02220189 =
2018-05-26 01:52 METAR KPWK 260652Z AUTO 19008KT 10SM CLR 22/19 A2976 RMK AO2 SLP071 T02220194 =
2018-05-26 00:52 METAR KPWK 260552Z AUTO 23007KT 10SM SCT070 BKN110 23/20 A2978 RMK AO2 RAE31
                 SLP078 P0006 60010 T02330200 10283 20233 403170167 58006 =
2018-05-25 23:52 METAR KPWK 260452Z AUTO 22006G19KT 5SM RA FEW040 BKN070 OVC120 24/20 A2980 RMK
                 AO2 RAB46 SLP086 P0004 T02390200 =
2018-05-25 22:52 METAR KPWK 260352Z 23004KT 10SM FEW120 26/18 A2980 RMK AO2 SLP086 T02560183 =
2018-05-25 21:52 METAR KPWK 260252Z 27003KT 10SM BKN100 BKN120 27/18 A2980 RMK AO2 SLP084
                 T02670183 51009 =
2018-05-25 20:52 METAR KPWK 260152Z 30005KT 10SM BKN090 OVC120 27/18 A2979 RMK AO2 SLP084
                 T02670178 =
2018-05-25 19:52 METAR KPWK 260052Z 22004KT 10SM OVC120 28/18 A2978 RMK AO2 SLP080 T02780178 =
2018-05-25 18:52 METAR KPWK 252352Z 24006KT 10SM CLR 28/18 A2977 RMK AO2 SLP076 T02830183 10317
                 20283 56016 =
2018-05-25 17:52 METAR KPWK 252252Z 25008KT 10SM CLR 31/16 A2977 RMK AO2 SLP076 T03060156 =
2018-05-25 16:52 METAR KPWK 252152Z 24003KT 10SM CLR 31/14 A2980 RMK AO2 SLP086 T03110139 =
2018-05-25 15:52 METAR KPWK 252052Z 23006KT 10SM CLR 31/14 A2982 RMK AO2 SLP092 T03110144 58028 =
2018-05-25 14:52 METAR KPWK 251952Z 26008G17KT 220V310 10SM FEW075 32/14 A2985 RMK AO2 SLP103
                 T03170144 =
2018-05-25 13:52 METAR KPWK 251852Z 23011KT 10SM FEW065 31/15 A2987 RMK AO2 SLP112 T03110150 =
2018-05-25 12:52 METAR KPWK 251752Z 20009KT 10SM CLR 31/16 A2990 RMK AO2 SLP121 T03060156 10311
                 20206 58012 =
2018-05-25 11:52 METAR KPWK 251652Z 22010G16KT 10SM CLR 30/16 A2992 RMK AO2 SLP127 T03000161 =
2018-05-25 10:52 METAR KPWK 251552Z 24008KT 210V280 10SM CLR 29/17 A2993 RMK AO2 SLP129 T02940167
                 =
2018-05-25 09:52 METAR KPWK 251452Z 22008KT 10SM CLR 28/16 A2994 RMK AO2 SLP133 T02780161 58006 =
2018-05-25 08:52 METAR KPWK 251352Z 23008KT 10SM CLR 26/16 A2996 RMK AO2 SLP139 T02560156 =
2018-05-25 07:52 METAR KPWK 251252Z 20006KT 10SM CLR 23/14 A2996 RMK AO2 SLP140 T02330144 $ =
2018-05-25 06:52 METAR KPWK 251152Z 19004KT 10SM CLR 21/14 A2995 RMK AO2 SLP139 T02060139 10206
                 20167 56012 =
2018-05-25 05:52 METAR KPWK 251052Z 16003KT 10SM CLR 18/13 A2997 RMK AO2 SLP143 T01780133 $ =

Support USWX by starting your Amazon purchase here.